Time;durP1;ratioP1;P1;durP2;ratioP2;P2;SDS_P1;SDS_P2;PMS_P1;PMS_P2;Temp;Humidity;BMP_temperature;BMP_pressure;BME280_temperature;BME280_humidity;BME280_pressure;Samples;Min_cycle;Max_cycle;Signal;HPM_P1;HPM_P2
2022/05/07 00:05:35;;;;;;;16.40;12.80;;;;;;;6.59;64.56;100118.05;441318;1285;143878;-47
2022/05/07 00:18:01;;;;;;;16.50;12.00;;;;;;;6.43;64.84;100113.63;434832;1285;143659;-53
2022/05/07 00:26:07;;;;;;;13.10;11.70;;;;;;;6.29;65.37;100111.54;441209;1286;142984;-55
2022/05/07 00:36:12;;;;;;;12.20;10.40;;;;;;;6.17;65.59;100103.11;433418;1285;142550;-48
2022/05/07 00:46:21;;;;;;;18.50;12.40;;;;;;;6.02;65.80;100101.03;425174;1287;142489;-53
2022/05/07 00:56:27;;;;;;;16.30;13.30;;;;;;;5.87;66.15;100088.90;424239;1285;143510;-51
2022/05/07 01:06:34;;;;;;;19.10;13.00;;;;;;;5.74;66.72;100083.29;437801;1286;143915;-53
2022/05/07 01:16:40;;;;;;;17.30;12.20;;;;;;;5.65;67.16;100077.66;441948;1285;142140;-53
2022/05/07 01:26:46;;;;;;;31.20;14.40;;;;;;;5.59;67.10;100082.92;440944;1285;143208;-53
2022/05/07 01:36:52;;;;;;;18.80;12.10;;;;;;;5.53;67.29;100086.46;442086;1286;144038;-53
2022/05/07 01:57:21;;;;;;;13.90;12.40;;;;;;;5.36;67.91;100075.73;442077;1285;141969;-54
2022/05/07 02:07:27;;;;;;;20.30;12.70;;;;;;;5.30;68.32;100072.11;442132;1286;142635;-51
2022/05/07 02:17:33;;;;;;;21.30;13.30;;;;;;;5.22;68.45;100067.88;425875;1285;145846;-51
2022/05/07 02:27:39;;;;;;;17.90;13.60;;;;;;;5.11;68.58;100072.58;439830;1285;143275;-52
2022/05/07 02:37:44;;;;;;;20.00;12.90;;;;;;;5.02;68.68;100071.84;442166;1285;143419;-51
2022/05/07 02:47:50;;;;;;;14.90;13.20;;;;;;;4.96;68.51;100071.70;441326;1285;142431;-53
2022/05/07 02:57:56;;;;;;;14.10;12.10;;;;;;;4.90;68.81;100079.54;442127;1285;143733;-54
2022/05/07 03:08:02;;;;;;;15.30;12.60;;;;;;;4.88;68.94;100082.88;432841;1285;142149;-49
2022/05/07 03:18:08;;;;;;;17.90;12.10;;;;;;;4.91;68.93;100088.84;437160;1286;142494;-54
2022/05/07 03:28:14;;;;;;;17.50;13.50;;;;;;;4.94;68.87;100094.50;438908;1285;142084;-53
2022/05/07 03:38:20;;;;;;;15.60;11.90;;;;;;;5.15;68.71;100094.13;441352;1285;145511;-53
2022/05/07 03:48:28;;;;;;;20.80;13.10;;;;;;;5.52;68.66;100102.45;441983;1285;142393;-53
2022/05/07 03:58:32;;;;;;;;;;;;;;;5.98;68.01;100121.02;441929;1285;142447;-52
2022/05/07 04:08:38;;;;;;;16.30;12.40;;;;;;;6.53;67.89;100125.77;441383;1286;129289;-55
2022/05/07 04:18:44;;;;;;;13.10;11.80;;;;;;;7.40;67.86;100133.92;441805;1285;142065;-55
2022/05/07 04:28:50;;;;;;;27.90;14.00;;;;;;;12.73;64.75;100126.61;441825;1285;145495;-54
2022/05/07 04:38:55;;;;;;;16.20;12.90;;;;;;;13.15;58.59;100129.52;441136;1285;143280;-54
2022/05/07 04:49:01;;;;;;;19.30;13.70;;;;;;;12.15;58.88;100141.34;441475;1286;144061;-55
2022/05/07 04:59:07;;;;;;;14.90;12.60;;;;;;;13.91;59.40;100143.30;441122;1285;144119;-53
2022/05/07 05:09:13;;;;;;;21.40;12.00;;;;;;;23.26;50.44;100124.57;435533;1287;142603;-50
2022/05/07 05:19:20;;;;;;;18.60;12.20;;;;;;;29.56;41.58;100121.02;437662;1285;142248;-53
2022/05/07 05:29:25;;;;;;;12.70;9.70;;;;;;;33.91;34.49;100120.36;441149;1285;142583;-53
2022/05/07 05:39:31;;;;;;;11.50;9.50;;;;;;;37.58;29.79;100127.35;441956;1285;143600;-55
2022/05/07 05:49:37;;;;;;;10.60;6.80;;;;;;;41.23;24.97;100127.95;441919;1285;141857;-56
2022/05/07 05:59:43;;;;;;;8.30;4.90;;;;;;;43.65;21.90;100123.45;441104;1285;141704;-55
2022/05/07 06:09:49;;;;;;;9.10;4.80;;;;;;;46.72;18.53;100121.95;441862;1285;141020;-56
2022/05/07 06:19:55;;;;;;;3.30;2.80;;;;;;;48.03;16.30;100127.77;430293;1286;142758;-53
2022/05/07 06:30:04;;;;;;;3.30;2.60;;;;;;;49.68;14.40;100125.67;441135;1285;147076;-55
2022/05/07 06:40:11;;;;;;;5.40;2.30;;;;;;;50.02;13.37;100129.46;431221;1285;141371;-54
2022/05/07 06:50:17;;;;;;;6.30;3.40;;;;;;;51.68;12.45;100123.44;440818;1285;141337;-55
2022/05/07 07:00:23;;;;;;;3.20;3.00;;;;;;;50.70;11.46;100126.52;441713;1285;141388;-51
2022/05/07 07:10:29;;;;;;;2.30;2.20;;;;;;;51.00;10.83;100130.09;441924;1284;143100;-52
2022/05/07 07:20:35;;;;;;;4.60;3.80;;;;;;;50.23;10.30;100134.45;441149;1285;141673;-55
2022/05/07 07:30:41;;;;;;;2.20;2.10;;;;;;;49.59;10.26;100129.68;441887;1285;142633;-52
2022/05/07 07:40:50;;;;;;;2.10;2.00;;;;;;;46.92;10.69;100125.95;441782;1285;142966;-55
2022/05/07 07:50:55;;;;;;;2.00;1.30;;;;;;;48.14;10.32;100117.88;440895;1285;142178;-56
2022/05/07 08:01:01;;;;;;;0.70;0.70;;;;;;;48.19;9.98;100117.23;441794;1285;143484;-52
2022/05/07 08:21:31;;;;;;;3.50;0.90;;;;;;;32.61;15.62;100119.62;441879;1285;143228;-54
2022/05/07 08:31:37;;;;;;;1.70;0.70;;;;;;;27.72;19.22;100130.20;440443;1285;141045;-54
2022/05/07 08:41:43;;;;;;;2.10;0.90;;;;;;;25.83;21.23;100129.55;441078;1285;142165;-55
2022/05/07 08:51:49;;;;;;;2.20;0.80;;;;;;;24.82;23.12;100130.45;441827;1285;143856;-55
2022/05/07 09:01:55;;;;;;;0.60;0.60;;;;;;;23.96;24.68;100130.02;437010;1285;198754;-52
2022/05/07 09:12:01;;;;;;;1.50;0.80;;;;;;;24.14;24.96;100134.13;424937;1284;142564;-53
2022/05/07 09:22:09;;;;;;;2.00;0.90;;;;;;;23.85;25.20;100130.98;431265;1285;141302;-52
2022/05/07 09:32:16;;;;;;;2.20;0.80;;;;;;;22.64;26.60;100131.36;440824;1285;318952;-54
2022/05/07 09:42:24;;;;;;;1.80;0.90;;;;;;;22.72;27.47;100127.64;441789;1285;142028;-57
2022/05/07 09:52:30;;;;;;;7.00;1.10;;;;;;;22.80;27.43;100115.48;441982;1285;140922;-57
2022/05/07 10:03:06;;;;;;;1.40;0.90;;;;;;;22.53;27.69;100111.19;424458;1285;142721;-54
2022/05/07 10:13:19;;;;;;;1.40;1.30;;;;;;;22.33;28.00;100100.19;441611;1285;141876;-57
2022/05/07 10:23:32;;;;;;;3.60;1.30;;;;;;;22.37;28.52;100086.02;441139;1285;162081;-57
2022/05/07 10:33:42;;;;;;;3.30;1.00;;;;;;;22.64;28.40;100077.03;441955;1285;142774;-57
2022/05/07 10:44:02;;;;;;;1.60;0.60;;;;;;;22.62;28.33;100075.92;441866;1284;143259;-57
2022/05/07 10:54:21;;;;;;;4.10;0.80;;;;;;;22.67;28.28;100068.44;440078;1284;142842;-53
2022/05/07 11:04:27;;;;;;;1.10;0.80;;;;;;;23.04;27.93;100064.48;438820;1285;142003;-57
2022/05/07 11:14:35;;;;;;;6.20;1.20;;;;;;;22.85;28.35;100069.15;441293;1285;141921;-57
2022/05/07 11:24:41;;;;;;;1.80;0.90;;;;;;;22.56;28.72;100059.36;441908;1285;142000;-56
2022/05/07 11:34:47;;;;;;;3.10;0.90;;;;;;;22.49;28.80;100046.84;442095;1285;141663;-57
2022/05/07 11:55:24;;;;;;;1.80;1.20;;;;;;;22.46;29.08;100030.55;442089;1286;142872;-56
2022/05/07 12:05:40;;;;;;;1.10;0.70;;;;;;;22.95;28.76;100030.16;441355;1285;141720;-56
2022/05/07 12:36:41;;;;;;;5.10;1.10;;;;;;;22.36;29.30;100006.14;441999;1285;141704;-58
2022/05/07 12:46:47;;;;;;;1.50;1.10;;;;;;;22.33;29.47;100000.15;441774;1286;141704;-57
2022/05/07 12:56:53;;;;;;;4.40;1.50;;;;;;;22.33;29.67;99999.28;441245;1285;142421;-55
2022/05/07 13:06:59;;;;;;;3.30;0.90;;;;;;;22.26;29.91;100000.40;441963;1285;142438;-55
2022/05/07 13:17:05;;;;;;;3.10;0.80;;;;;;;21.97;30.06;99991.26;441272;1284;141363;-56
2022/05/07 13:27:11;;;;;;;3.70;0.90;;;;;;;22.24;29.90;99986.46;441882;1285;142537;-57
2022/05/07 13:37:18;;;;;;;1.80;0.90;;;;;;;22.52;29.67;99983.19;442081;1285;142200;-56
2022/05/07 13:47:24;;;;;;;1.30;0.90;;;;;;;22.29;29.66;99976.83;441340;1285;141596;-57
2022/05/07 13:57:29;;;;;;;4.80;1.40;;;;;;;22.53;29.66;99970.98;442153;1285;141952;-57
2022/05/07 14:07:37;;;;;;;2.50;1.00;;;;;;;22.69;29.56;99965.09;440483;1285;141799;-55
2022/05/07 14:17:43;;;;;;;1.30;1.00;;;;;;;22.42;29.70;99957.25;441275;1285;141886;-57
2022/05/07 14:27:49;;;;;;;1.70;0.70;;;;;;;22.07;29.98;99954.25;441995;1287;142310;-57
2022/05/07 14:37:55;;;;;;;0.90;0.60;;;;;;;21.93;29.87;99945.63;438050;1285;141558;-56
2022/05/07 14:48:01;;;;;;;1.40;0.50;;;;;;;21.51;29.87;99943.70;427357;1287;141805;-55
2022/05/07 14:58:07;;;;;;;1.00;0.60;;;;;;;21.10;30.09;99935.24;425160;1287;141041;-51
2022/05/07 15:18:36;;;;;;;1.40;1.00;;;;;;;20.95;30.88;99924.06;441918;1286;140830;-54
2022/05/07 15:28:45;;;;;;;1.10;0.80;;;;;;;20.85;31.09;99913.42;431030;1286;142883;-54
2022/05/07 15:38:51;;;;;;;3.60;1.00;;;;;;;20.68;31.37;99907.63;441057;1286;143218;-55
2022/05/07 15:48:57;;;;;;;1.70;0.80;;;;;;;20.92;31.26;99901.01;442096;1285;142392;-56
2022/05/07 15:59:03;;;;;;;4.10;1.50;;;;;;;21.18;30.81;99900.15;441880;1286;142306;-56
2022/05/07 16:09:11;;;;;;;2.70;0.80;;;;;;;21.26;31.00;99889.66;441883;1286;195433;-57
2022/05/07 16:19:17;;;;;;;2.60;0.80;;;;;;;21.15;31.19;99886.36;442125;1286;143440;-57
2022/05/07 16:29:22;;;;;;;1.50;0.80;;;;;;;20.89;31.90;99880.66;441348;1286;141339;-57
2022/05/07 16:39:28;;;;;;;3.60;1.00;;;;;;;20.80;32.14;99885.63;442134;1285;141660;-57
2022/05/07 16:49:34;;;;;;;0.90;0.80;;;;;;;20.92;32.00;99884.81;430737;1285;141522;-55
2022/05/07 16:59:41;;;;;;;4.70;1.10;;;;;;;20.98;32.09;99876.84;438411;1285;142287;-53
2022/05/07 17:09:46;;;;;;;1.10;0.70;;;;;;;20.90;32.05;99879.84;430125;1285;141330;-56
2022/05/07 17:19:53;;;;;;;1.30;1.10;;;;;;;21.61;31.51;99883.73;442147;1285;142172;-56
2022/05/07 17:29:59;;;;;;;2.40;0.90;;;;;;;21.14;31.71;99886.77;441269;1285;142119;-56
2022/05/07 17:40:08;;;;;;;3.20;1.30;;;;;;;20.55;32.05;99897.92;442030;1285;143181;-56
2022/05/07 17:50:14;;;;;;;4.70;1.60;;;;;;;20.14;32.98;99911.27;441299;1285;141470;-57
2022/05/07 18:00:20;;;;;;;14.10;2.80;;;;;;;19.83;33.90;99921.90;441986;1285;141673;-56
2022/05/07 18:10:26;;;;;;;15.60;3.40;;;;;;;19.29;34.99;99926.69;439593;1285;141712;-54
2022/05/07 18:20:32;;;;;;;7.40;1.80;;;;;;;18.69;36.47;99936.35;441128;1285;141400;-55
2022/05/07 18:30:38;;;;;;;8.90;2.70;;;;;;;18.08;38.14;99943.09;427504;1285;141422;-50
2022/05/07 18:51:08;;;;;;;18.10;5.30;;;;;;;17.01;41.36;99957.60;441652;1285;141203;-51
2022/05/07 19:01:17;;;;;;;14.80;5.00;;;;;;;16.51;42.69;99965.48;441148;1286;142107;-53
2022/05/07 19:11:23;;;;;;;50.90;7.60;;;;;;;16.06;43.88;99969.52;441012;1285;142431;-55
2022/05/07 19:21:29;;;;;;;21.60;5.70;;;;;;;15.58;45.09;99980.34;441722;1285;141012;-51
2022/05/07 19:31:35;;;;;;;10.50;4.10;;;;;;;15.11;46.77;99980.75;439902;1285;142068;-48
2022/05/07 19:41:45;;;;;;;16.60;7.50;;;;;;;14.70;47.90;99985.05;425008;1285;143400;-49
2022/05/07 19:51:51;;;;;;;21.90;8.00;;;;;;;14.29;49.08;99982.95;432214;1285;142002;-49
2022/05/07 20:02:00;;;;;;;21.90;10.00;;;;;;;13.85;50.27;99984.46;426608;1285;142214;-47
2022/05/07 20:12:09;;;;;;;19.20;7.90;;;;;;;13.45;51.41;99991.31;426961;1286;141943;-48
2022/05/07 20:22:15;;;;;;;18.20;10.10;;;;;;;13.11;52.24;99996.41;427041;1284;142884;-43
2022/05/07 20:32:21;;;;;;;21.60;10.60;;;;;;;12.76;52.97;99995.27;425194;1285;142592;-48
2022/05/07 20:42:27;;;;;;;25.20;16.40;;;;;;;12.54;53.47;99993.32;427478;1285;141319;-47
2022/05/07 20:52:33;;;;;;;22.60;15.50;;;;;;;12.34;54.13;99998.01;430397;1286;142489;-52
2022/05/07 21:02:39;;;;;;;24.00;12.70;;;;;;;12.07;54.96;100002.66;429095;1285;143157;-49
2022/05/07 21:12:45;;;;;;;27.40;14.90;;;;;;;11.83;55.72;100003.95;425703;1285;141522;-48
2022/05/07 21:22:51;;;;;;;24.90;14.40;;;;;;;11.59;56.21;100008.57;425481;1287;141815;-49
2022/05/07 21:32:57;;;;;;;22.80;14.40;;;;;;;11.30;56.96;100009.67;425708;1285;546640;-47
2022/05/07 21:43:03;;;;;;;41.40;15.80;;;;;;;11.11;57.92;100018.30;425484;1285;142589;-45
2022/05/07 21:53:09;;;;;;;31.90;15.70;;;;;;;10.94;58.75;100026.80;425121;1285;198267;-49
2022/05/07 22:03:15;;;;;;;28.50;17.20;;;;;;;10.76;58.85;100025.58;425558;1285;144274;-47
2022/05/07 22:13:23;;;;;;;35.00;18.50;;;;;;;10.57;59.34;100026.86;426190;1285;142868;-48
2022/05/07 22:23:29;;;;;;;34.30;17.40;;;;;;;10.38;59.92;100024.02;425129;1285;143075;-47
2022/05/07 22:33:35;;;;;;;42.50;19.60;;;;;;;10.18;60.22;100027.93;425587;1285;144188;-46
2022/05/07 22:43:41;;;;;;;34.00;16.90;;;;;;;10.00;60.79;100030.98;425119;1285;143148;-47
2022/05/07 22:53:49;;;;;;;25.90;17.80;;;;;;;9.85;61.29;100028.66;424532;1285;144060;-50
2022/05/07 23:03:56;;;;;;;32.50;18.40;;;;;;;9.72;61.51;100023.79;425479;1287;143125;-53
2022/05/07 23:14:02;;;;;;;30.30;17.00;;;;;;;9.60;61.90;100024.20;425743;1285;142684;-46
2022/05/07 23:24:09;;;;;;;24.70;15.40;;;;;;;9.46;62.34;100016.54;425883;1287;142001;-45
2022/05/07 23:34:15;;;;;;;22.50;13.70;;;;;;;9.34;62.56;100019.27;427138;1285;145497;-56
2022/05/07 23:44:20;;;;;;;25.90;15.30;;;;;;;9.18;62.86;100023.55;424693;1285;143950;-57
2022/05/07 23:54:26;;;;;;;24.60;15.10;;;;;;;9.01;63.28;100026.00;430102;1285;143974;-57
